createdAt,value
2019-03-05T00:00:50.527Z,74.09
2019-03-05T00:03:21.801Z,74.04
2019-03-05T00:05:53.380Z,74.18
2019-03-05T00:08:24.560Z,74.19
2019-03-05T00:10:56.365Z,74.35
2019-03-05T00:13:27.690Z,74.22
2019-03-05T00:15:58.929Z,74.27
2019-03-05T00:18:31.058Z,74.53
2019-03-05T00:21:03.291Z,74.59
2019-03-05T00:23:43.559Z,74.61
2019-03-05T00:26:15.291Z,74.61
2019-03-05T00:28:49.667Z,74.62
2019-03-05T00:31:27.118Z,74.75
2019-03-05T00:34:04.085Z,74.73
2019-03-05T00:36:47.991Z,74.69
2019-03-05T00:39:25.319Z,74.84
2019-03-05T00:42:25.676Z,74.87
2019-03-05T00:45:02.924Z,74.97
2019-03-05T00:47:37.301Z,75.05
2019-03-05T00:50:21.785Z,75.10
2019-03-05T00:53:15.869Z,75.21
2019-03-05T00:56:05.338Z,75.22
2019-03-05T00:58:42.587Z,75.07
2019-03-05T01:01:33.674Z,75.10
2019-03-05T01:04:19.894Z,75.00
2019-03-05T01:06:51.238Z,74.97
2019-03-05T01:09:22.740Z,74.88
2019-03-05T01:11:54.052Z,74.83
2019-03-05T01:14:25.596Z,74.88
2019-03-05T01:16:56.861Z,74.80
2019-03-05T01:19:28.181Z,74.68
2019-03-05T01:21:59.605Z,74.72
2019-03-05T01:24:30.931Z,74.71
2019-03-05T01:27:03.678Z,74.80
2019-03-05T01:29:34.906Z,74.81
2019-03-05T01:32:07.690Z,74.80
2019-03-05T01:34:40.630Z,74.81
2019-03-05T01:37:11.883Z,74.69
2019-03-05T01:40:02.638Z,74.67
2019-03-05T01:42:33.772Z,74.70
2019-03-05T01:45:08.441Z,74.72
2019-03-05T01:47:39.730Z,74.64
2019-03-05T01:50:11.695Z,74.68
2019-03-05T01:52:42.792Z,74.72
2019-03-05T01:55:13.976Z,74.67
2019-03-05T01:57:45.092Z,74.55
2019-03-05T02:00:16.181Z,74.45
2019-03-05T02:02:49.334Z,74.48
2019-03-05T02:05:21.613Z,74.47
2019-03-05T02:07:52.693Z,74.53
2019-03-05T02:10:24.951Z,74.46
2019-03-05T02:12:56.152Z,74.55
2019-03-05T02:15:27.457Z,74.50
2019-03-05T02:17:58.626Z,74.48
2019-03-05T02:20:29.753Z,74.57
2019-03-05T02:23:07.298Z,74.55
2019-03-05T02:25:41.622Z,74.55
2019-03-05T02:28:21.910Z,74.38
2019-03-05T02:30:59.008Z,74.36
2019-03-05T02:33:50.079Z,74.42
2019-03-05T02:36:24.522Z,74.30
2019-03-05T02:39:32.353Z,74.27
2019-03-05T02:42:34.143Z,74.36
2019-03-05T02:45:31.595Z,74.24
2019-03-05T02:48:20.707Z,74.18
2019-03-05T02:51:00.766Z,74.27
2019-03-05T02:54:00.938Z,74.21
2019-03-05T02:57:08.832Z,74.25
2019-03-05T02:59:39.977Z,74.15
2019-03-05T03:02:12.799Z,74.20
2019-03-05T03:04:48.564Z,74.10
2019-03-05T03:07:19.721Z,74.10
2019-03-05T03:09:54.259Z,74.19
2019-03-05T03:12:25.311Z,74.16
2019-03-05T03:14:56.582Z,73.95
2019-03-05T03:17:27.778Z,73.85
2019-03-05T03:19:59.213Z,73.95
2019-03-05T03:22:30.311Z,73.98
2019-03-05T03:25:01.766Z,73.93
2019-03-05T03:27:32.966Z,73.75
2019-03-05T03:30:06.691Z,73.68
2019-03-05T03:32:37.902Z,73.83
2019-03-05T03:35:12.626Z,73.83
2019-03-05T03:37:43.628Z,73.78
2019-03-05T03:40:19.867Z,73.71
2019-03-05T03:42:51.077Z,73.81
2019-03-05T03:45:22.300Z,73.65
2019-03-05T03:47:53.481Z,73.60
2019-03-05T03:50:24.754Z,73.54
2019-03-05T03:52:57.522Z,73.58
2019-03-05T03:55:28.660Z,73.39
2019-03-05T03:57:59.706Z,73.58
2019-03-05T04:00:30.933Z,73.44
2019-03-05T04:03:06.074Z,73.29
2019-03-05T04:05:37.230Z,73.20
2019-03-05T04:08:10.485Z,73.52
2019-03-05T04:10:41.414Z,73.39
2019-03-05T04:13:12.569Z,73.27
2019-03-05T04:15:44.465Z,73.42
2019-03-05T04:18:15.685Z,73.27
2019-03-05T04:20:49.632Z,73.27
2019-03-05T04:23:21.004Z,73.51
2019-03-05T04:25:52.278Z,73.49
2019-03-05T04:28:23.452Z,73.45
2019-03-05T04:30:54.674Z,73.39
2019-03-05T04:33:25.917Z,73.24
2019-03-05T04:35:57.167Z,73.08
2019-03-05T04:38:29.440Z,73.18
2019-03-05T04:41:00.680Z,73.04
2019-03-05T04:43:31.977Z,73.07
2019-03-05T04:46:04.759Z,72.88
2019-03-05T04:48:35.893Z,72.84
2019-03-05T04:51:08.820Z,72.87
2019-03-05T04:53:40.099Z,72.86
2019-03-05T04:56:11.287Z,72.84
2019-03-05T04:58:43.691Z,72.75
2019-03-05T05:01:14.975Z,72.49
2019-03-05T05:03:49.184Z,72.50
2019-03-05T05:06:20.408Z,72.37
2019-03-05T05:08:51.467Z,72.38
2019-03-05T05:11:22.761Z,72.32
2019-03-05T05:13:54.243Z,72.20
2019-03-05T05:16:25.635Z,72.21
2019-03-05T05:18:57.271Z,72.15
2019-03-05T05:21:28.503Z,71.97
2019-03-05T05:23:59.660Z,71.84
2019-03-05T05:26:30.781Z,71.72
2019-03-05T05:29:02.161Z,71.75
2019-03-05T05:31:33.355Z,71.67
2019-03-05T05:34:05.247Z,71.60
2019-03-05T05:36:36.385Z,71.53
2019-03-05T05:39:10.725Z,71.51
2019-03-05T05:41:42.125Z,71.84
2019-03-05T05:44:13.215Z,71.72
2019-03-05T05:46:44.334Z,71.61
2019-03-05T05:49:17.043Z,71.71
2019-03-05T05:51:48.237Z,71.65
2019-03-05T05:54:19.429Z,71.63
2019-03-05T05:56:50.778Z,71.77
2019-03-05T05:59:23.237Z,71.70
2019-03-05T06:01:56.627Z,71.64
2019-03-05T06:04:27.783Z,71.22
2019-03-05T06:06:58.954Z,70.81
2019-03-05T06:09:30.397Z,70.71
2019-03-05T06:12:01.675Z,70.30
2019-03-05T06:14:33.143Z,70.25
2019-03-05T06:17:04.335Z,70.43
2019-03-05T06:19:35.574Z,70.46
2019-03-05T06:22:06.685Z,70.54
2019-03-05T06:24:37.933Z,70.22
2019-03-05T06:27:09.088Z,70.21
2019-03-05T06:29:40.323Z,69.73
2019-03-05T06:32:12.547Z,69.97
2019-03-05T06:34:43.808Z,69.95
2019-03-05T06:37:15.019Z,69.83
2019-03-05T06:39:46.435Z,69.83
2019-03-05T06:42:18.741Z,69.47
2019-03-05T06:44:49.909Z,69.85
2019-03-05T06:47:22.311Z,69.63
2019-03-05T06:49:53.644Z,69.13
2019-03-05T06:52:24.793Z,69.08
2019-03-05T06:54:56.111Z,69.03
2019-03-05T06:57:28.374Z,69.10
2019-03-05T06:59:59.585Z,68.99
2019-03-05T07:02:30.880Z,69.11
2019-03-05T07:05:02.001Z,68.43
2019-03-05T07:07:33.917Z,68.41
2019-03-05T07:10:16.344Z,68.36
2019-03-05T07:12:51.850Z,67.97
2019-03-05T07:15:51.295Z,67.97
2019-03-05T07:18:30.253Z,67.59
2019-03-05T07:21:39.643Z,67.12
2019-03-05T07:24:39.773Z,66.86
2019-03-05T07:27:10.859Z,66.44
2019-03-05T07:29:43.709Z,65.89
2019-03-05T07:32:14.843Z,65.40
2019-03-05T07:34:47.725Z,65.14
2019-03-05T07:37:18.973Z,64.88
2019-03-05T07:39:50.410Z,64.40
2019-03-05T07:42:21.602Z,64.24
2019-03-05T07:44:52.811Z,63.91
2019-03-05T07:47:24.031Z,63.67
2019-03-05T07:49:55.441Z,63.51
2019-03-05T07:52:26.643Z,63.64
2019-03-05T07:54:57.878Z,63.03
2019-03-05T07:57:29.113Z,62.78
2019-03-05T08:00:00.453Z,62.57
2019-03-05T08:02:32.054Z,62.48
2019-03-05T08:05:03.692Z,62.47
2019-03-05T08:07:38.121Z,62.12
2019-03-05T08:10:21.128Z,62.28
2019-03-05T08:13:10.835Z,62.70
2019-03-05T08:16:09.798Z,61.90
2019-03-05T08:18:41.372Z,62.28
2019-03-05T08:21:12.589Z,62.12
2019-03-05T08:23:48.246Z,62.06
2019-03-05T08:26:20.391Z,61.98
2019-03-05T08:28:53.437Z,61.66
2019-03-05T08:31:24.849Z,61.51
2019-03-05T08:33:56.464Z,61.59
2019-03-05T08:36:27.490Z,61.10
2019-03-05T08:38:59.100Z,61.11
2019-03-05T08:41:30.470Z,60.63
2019-03-05T08:44:02.136Z,60.38
2019-03-05T08:46:33.510Z,60.29
2019-03-05T08:49:04.702Z,60.31
2019-03-05T08:51:36.909Z,60.30
2019-03-05T08:54:09.492Z,59.47
2019-03-05T08:56:47.604Z,59.07
2019-03-05T08:59:15.965Z,59.03
2019-03-05T09:01:47.255Z,58.24
2019-03-05T09:04:18.729Z,58.12
2019-03-05T09:06:51.473Z,57.85
2019-03-05T09:09:23.051Z,57.30
2019-03-05T09:11:58.538Z,57.31
2019-03-05T09:14:30.898Z,57.22
2019-03-05T09:17:02.135Z,56.90
2019-03-05T09:19:33.359Z,56.91
2019-03-05T09:22:04.659Z,57.16
2019-03-05T09:24:35.801Z,56.90
2019-03-05T09:27:09.887Z,56.59
2019-03-05T09:29:41.148Z,56.30
2019-03-05T09:32:12.324Z,55.54
2019-03-05T09:34:43.388Z,55.12
2019-03-05T09:37:15.685Z,54.67
2019-03-05T09:39:47.047Z,54.73
2019-03-05T09:42:18.431Z,53.94
2019-03-05T09:44:49.665Z,53.69
2019-03-05T09:47:22.938Z,53.87
2019-03-05T09:49:54.119Z,54.03
2019-03-05T09:52:25.753Z,53.98
2019-03-05T09:54:57.102Z,53.55
2019-03-05T09:57:29.248Z,53.94
2019-03-05T10:00:00.628Z,54.07
2019-03-05T10:02:31.872Z,54.43
2019-03-05T10:05:03.119Z,54.06
2019-03-05T10:07:34.364Z,53.62
2019-03-05T10:10:10.475Z,53.24
2019-03-05T10:12:41.620Z,53.01
2019-03-05T10:15:23.669Z,52.01
2019-03-05T10:17:55.055Z,51.95
2019-03-05T10:20:31.454Z,50.92
2019-03-05T10:23:02.634Z,51.01
2019-03-05T10:25:33.750Z,50.91
2019-03-05T10:28:06.009Z,50.94
2019-03-05T10:30:42.845Z,50.81
2019-03-05T10:33:15.881Z,50.55
2019-03-05T10:35:47.228Z,50.08
2019-03-05T10:38:18.499Z,50.22
2019-03-05T10:40:54.445Z,49.96
2019-03-05T10:43:25.740Z,49.63
2019-03-05T10:45:56.976Z,49.62
2019-03-05T10:48:30.348Z,49.65
2019-03-05T10:51:05.475Z,48.99
2019-03-05T10:53:36.829Z,49.09
2019-03-05T10:56:08.058Z,48.37
2019-03-05T10:58:39.919Z,48.47
2019-03-05T11:01:11.164Z,48.01
2019-03-05T11:03:42.580Z,47.75
2019-03-05T11:06:13.892Z,47.52
2019-03-05T11:08:45.539Z,47.85
2019-03-05T11:11:16.705Z,48.03
2019-03-05T11:13:49.756Z,48.08
2019-03-05T11:16:31.059Z,47.88
2019-03-05T11:19:01.466Z,48.02
2019-03-05T11:21:33.049Z,48.01
2019-03-05T11:24:04.642Z,47.83
2019-03-05T11:26:35.907Z,47.73
2019-03-05T11:29:08.425Z,48.10
2019-03-05T11:31:40.243Z,48.00
2019-03-05T11:34:13.246Z,47.98
2019-03-05T11:36:44.816Z,47.79
2019-03-05T11:39:16.155Z,47.59
2019-03-05T11:41:47.543Z,47.75
2019-03-05T11:44:18.820Z,47.47
2019-03-05T11:46:50.036Z,47.60
2019-03-05T11:49:22.357Z,47.60
2019-03-05T11:51:53.755Z,47.38
2019-03-05T11:54:29.118Z,47.09
2019-03-05T11:57:03.103Z,46.91
2019-03-05T11:59:34.413Z,46.80
2019-03-05T12:02:07.011Z,47.18
2019-03-05T12:04:38.204Z,46.96
2019-03-05T12:07:10.098Z,46.90
2019-03-05T12:09:53.567Z,46.81
2019-03-05T12:12:27.275Z,47.35
2019-03-05T12:14:59.932Z,46.71
2019-03-05T12:17:31.247Z,46.68
2019-03-05T12:20:03.495Z,46.45
2019-03-05T12:22:34.892Z,46.12
2019-03-05T12:25:11.916Z,45.59
2019-03-05T12:27:43.455Z,45.64
2019-03-05T12:30:19.998Z,45.46
2019-03-05T12:32:51.468Z,45.40
2019-03-05T12:35:22.746Z,45.84
2019-03-05T12:37:53.926Z,45.95
2019-03-05T12:40:27.152Z,46.01
2019-03-05T12:42:58.376Z,46.26
2019-03-05T12:45:29.645Z,46.78
2019-03-05T12:48:00.800Z,46.72
2019-03-05T12:50:36.833Z,47.25
2019-03-05T12:53:08.184Z,46.84
2019-03-05T12:55:39.384Z,47.06
2019-03-05T12:58:13.704Z,47.47
2019-03-05T13:00:45.396Z,47.66
2019-03-05T13:03:16.774Z,47.70
2019-03-05T13:05:48.096Z,48.23
2019-03-05T13:08:21.891Z,48.21
2019-03-05T13:10:53.177Z,48.00
2019-03-05T13:13:24.493Z,47.92
2019-03-05T13:15:56.533Z,47.67
2019-03-05T13:18:30.996Z,47.80
2019-03-05T13:21:03.703Z,47.93
2019-03-05T13:23:35.746Z,48.07
2019-03-05T13:26:07.569Z,48.30
2019-03-05T13:28:40.489Z,48.44
2019-03-05T13:31:12.857Z,48.62
2019-03-05T13:33:44.492Z,49.09
2019-03-05T13:36:16.731Z,49.10
2019-03-05T13:38:48.405Z,49.35
2019-03-05T13:41:19.628Z,49.56
2019-03-05T13:43:59.796Z,49.69
2019-03-05T13:46:31.368Z,49.90
2019-03-05T13:49:20.936Z,49.99
2019-03-05T13:52:01.069Z,50.11
2019-03-05T13:54:39.146Z,50.17
2019-03-05T13:57:43.579Z,50.39
2019-03-05T14:00:15.259Z,50.38
2019-03-05T14:03:04.673Z,50.30
2019-03-05T14:06:03.142Z,50.08
2019-03-05T14:08:55.852Z,50.21
2019-03-05T14:11:27.093Z,50.18
2019-03-05T14:13:58.488Z,50.15
2019-03-05T14:16:29.801Z,50.40
2019-03-05T14:19:01.181Z,50.67
2019-03-05T14:21:32.357Z,50.98
2019-03-05T14:24:03.922Z,51.12
2019-03-05T14:26:35.178Z,51.17
2019-03-05T14:29:06.585Z,51.27
2019-03-05T14:31:38.111Z,51.58
2019-03-05T14:34:09.612Z,51.65
2019-03-05T14:36:41.793Z,51.65
2019-03-05T14:39:26.835Z,51.84
2019-03-05T14:41:58.312Z,51.96
2019-03-05T14:44:39.415Z,52.22
2019-03-05T14:47:04.769Z,52.48
2019-03-05T14:49:36.063Z,52.37
2019-03-05T14:52:15.911Z,52.58
2019-03-05T14:54:47.917Z,52.53
2019-03-05T14:57:19.332Z,52.68
2019-03-05T14:59:50.889Z,53.17
2019-03-05T15:02:31.184Z,52.97
2019-03-05T15:05:02.840Z,52.21
2019-03-05T15:07:35.898Z,52.17
2019-03-05T15:10:09.470Z,51.94
2019-03-05T15:12:41.325Z,51.82
2019-03-05T15:15:22.922Z,52.09
2019-03-05T15:17:59.019Z,52.20
2019-03-05T15:20:43.594Z,52.24
2019-03-05T15:23:18.422Z,52.26
2019-03-05T15:25:51.834Z,52.18
2019-03-05T15:28:24.837Z,52.16
2019-03-05T15:30:57.335Z,52.41
2019-03-05T15:33:34.994Z,52.59
2019-03-05T15:36:06.303Z,52.73
2019-03-05T15:38:37.605Z,52.96
2019-03-05T15:41:08.834Z,52.86
2019-03-05T15:43:40.071Z,52.93
2019-03-05T15:46:11.607Z,52.98
2019-03-05T15:48:42.801Z,52.88
2019-03-05T15:51:15.487Z,52.58
2019-03-05T15:56:17.957Z,52.89
2019-03-05T15:58:49.239Z,52.51
2019-03-05T16:01:22.550Z,52.92
2019-03-05T16:03:53.451Z,52.60
2019-03-05T16:06:24.924Z,52.82
2019-03-05T16:08:57.882Z,52.66
2019-03-05T16:11:30.219Z,52.93
2019-03-05T16:14:02.878Z,52.86
2019-03-05T16:16:34.490Z,52.97
2019-03-05T16:19:05.910Z,53.07
2019-03-05T16:21:41.218Z,53.03
2019-03-05T16:24:10.197Z,53.21
2019-03-05T16:26:41.526Z,53.38
2019-03-05T16:29:16.309Z,53.54
2019-03-05T16:31:51.651Z,53.62
2019-03-05T16:34:27.661Z,53.88
2019-03-05T16:37:02.050Z,53.94
2019-03-05T16:39:36.481Z,53.85
2019-03-05T16:42:10.857Z,54.24
2019-03-05T16:45:02.633Z,54.16
2019-03-05T16:47:39.504Z,54.15
2019-03-05T16:50:31.790Z,54.60
2019-03-05T16:53:07.584Z,55.10
2019-03-05T16:55:43.285Z,55.32
2019-03-05T16:58:24.211Z,55.56
2019-03-05T17:01:15.562Z,56.04
2019-03-05T17:03:57.502Z,56.60
2019-03-05T17:06:42.554Z,56.97
2019-03-05T17:09:15.391Z,57.64
2019-03-05T17:11:55.616Z,57.75
2019-03-05T17:14:27.197Z,57.97
2019-03-05T17:16:58.460Z,58.14
2019-03-05T17:19:29.636Z,58.36
2019-03-05T17:22:03.153Z,58.46
2019-03-05T17:24:34.404Z,58.50
2019-03-05T17:27:08.250Z,58.68
2019-03-05T17:29:39.334Z,58.66
2019-03-05T17:32:10.871Z,58.63
2019-03-05T17:34:41.982Z,58.74
2019-03-05T17:37:13.223Z,58.71
2019-03-05T17:39:44.550Z,58.84
2019-03-05T17:42:16.052Z,58.90
2019-03-05T17:44:47.564Z,58.98
2019-03-05T17:47:18.694Z,59.03
2019-03-05T17:49:49.962Z,59.06
2019-03-05T17:52:22.218Z,59.08
2019-03-05T17:54:53.849Z,59.28
2019-03-05T17:57:25.100Z,59.25
2019-03-05T17:59:56.365Z,59.39
2019-03-05T18:02:28.716Z,59.47
2019-03-05T18:05:00.040Z,59.59
2019-03-05T18:07:31.189Z,59.62
2019-03-05T18:10:08.143Z,59.63
2019-03-05T18:12:47.718Z,59.74
2019-03-05T18:15:20.165Z,59.70
2019-03-05T18:17:51.507Z,59.71
2019-03-05T18:20:23.379Z,59.59
2019-03-05T18:22:54.539Z,59.74
2019-03-05T18:25:25.712Z,59.83
2019-03-05T18:27:56.955Z,60.05
2019-03-05T18:30:32.192Z,60.05
2019-03-05T18:33:03.452Z,60.15
2019-03-05T18:35:34.808Z,60.17
2019-03-05T18:38:06.072Z,60.17
2019-03-05T18:40:37.584Z,60.33
2019-03-05T18:43:09.218Z,60.50
2019-03-05T18:45:40.628Z,60.69
2019-03-05T18:48:11.732Z,60.94
2019-03-05T18:50:42.943Z,61.14
2019-03-05T18:53:15.121Z,61.09
2019-03-05T18:55:46.431Z,61.17
2019-03-05T18:58:17.657Z,61.33
2019-03-05T19:00:51.567Z,61.39
2019-03-05T19:03:23.993Z,61.33
2019-03-05T19:05:55.201Z,61.32
2019-03-05T19:08:26.383Z,61.35
2019-03-05T19:10:57.700Z,61.43
2019-03-05T19:13:30.147Z,61.67
2019-03-05T19:16:01.557Z,61.69
2019-03-05T19:18:32.786Z,61.64
2019-03-05T19:21:03.948Z,61.67
2019-03-05T19:23:35.051Z,61.68
2019-03-05T19:26:06.892Z,62.04
2019-03-05T19:28:38.065Z,62.03
2019-03-05T19:31:09.356Z,62.08
2019-03-05T19:33:40.690Z,62.52
2019-03-05T19:36:11.930Z,62.06
2019-03-05T19:38:44.471Z,61.96
2019-03-05T19:41:16.000Z,62.02
2019-03-05T19:43:48.442Z,62.23
2019-03-05T19:46:19.807Z,62.23
2019-03-05T19:48:51.165Z,62.14
2019-03-05T19:51:22.608Z,62.10
2019-03-05T19:53:53.753Z,62.27
2019-03-05T19:56:25.062Z,62.22
2019-03-05T19:58:56.484Z,62.11
2019-03-05T20:01:29.373Z,62.00
2019-03-05T20:04:00.451Z,62.03
2019-03-05T20:06:32.059Z,61.97
2019-03-05T20:09:04.004Z,62.25
2019-03-05T20:11:36.910Z,62.17
2019-03-05T20:14:07.980Z,62.28
2019-03-05T20:16:39.469Z,62.43
2019-03-05T20:19:10.642Z,62.32
2019-03-05T20:21:41.854Z,62.43
2019-03-05T20:24:14.139Z,62.39
2019-03-05T20:26:45.344Z,62.23
2019-03-05T20:29:16.738Z,62.24
2019-03-05T20:31:47.984Z,62.43
2019-03-05T20:34:19.233Z,62.37
2019-03-05T20:36:50.654Z,62.21
2019-03-05T20:39:21.983Z,62.06
2019-03-05T20:41:53.387Z,62.31
2019-03-05T20:44:25.116Z,62.19
2019-03-05T20:46:56.478Z,61.96
2019-03-05T20:49:27.948Z,62.03
2019-03-05T20:51:59.426Z,61.85
2019-03-05T20:54:30.742Z,61.73
2019-03-05T20:57:02.045Z,62.04
2019-03-05T20:59:33.200Z,61.54
2019-03-05T21:02:04.404Z,61.39
2019-03-05T21:04:37.762Z,61.50
2019-03-05T21:07:10.724Z,61.47
2019-03-05T21:09:41.882Z,61.41
2019-03-05T21:12:13.118Z,61.32
2019-03-05T21:14:47.339Z,61.40
2019-03-05T21:17:18.745Z,61.16
2019-03-05T21:19:49.891Z,61.01
2019-03-05T21:22:21.145Z,61.07
2019-03-05T21:24:52.400Z,60.98
2019-03-05T21:27:23.737Z,61.01
2019-03-05T21:29:55.002Z,61.33
2019-03-05T21:32:26.465Z,61.38
2019-03-05T21:34:57.707Z,61.54
2019-03-05T21:37:29.320Z,61.50
2019-03-05T21:40:07.152Z,61.66
2019-03-05T21:42:39.032Z,61.64
2019-03-05T21:45:17.129Z,61.52
2019-03-05T21:47:50.623Z,61.63
2019-03-05T21:50:23.209Z,61.55
2019-03-05T21:52:54.828Z,61.16
2019-03-05T21:55:27.963Z,60.97
2019-03-05T21:58:02.451Z,60.70
2019-03-05T22:00:39.879Z,61.17
2019-03-05T22:03:19.903Z,61.01
2019-03-05T22:05:52.408Z,60.78
2019-03-05T22:08:23.532Z,60.62
2019-03-05T22:10:55.208Z,60.48
2019-03-05T22:13:26.661Z,60.52
2019-03-05T22:15:58.250Z,60.56
2019-03-05T22:18:29.802Z,60.47
2019-03-05T22:21:00.988Z,60.34
2019-03-05T22:23:32.300Z,60.36
2019-03-05T22:26:05.169Z,60.23
2019-03-05T22:28:36.558Z,60.05
2019-03-05T22:31:07.930Z,60.02
2019-03-05T22:33:39.197Z,59.77
2019-03-05T22:36:10.500Z,59.51
2019-03-05T22:38:41.895Z,59.66
2019-03-05T22:41:13.167Z,59.62
2019-03-05T22:43:44.392Z,59.38
2019-03-05T22:46:22.759Z,59.55
2019-03-05T22:48:55.535Z,59.40
2019-03-05T22:51:27.749Z,59.38
2019-03-05T22:53:59.250Z,59.10
2019-03-05T22:56:30.622Z,59.05
2019-03-05T22:59:01.922Z,58.83
2019-03-05T23:01:35.449Z,58.50
2019-03-05T23:04:08.703Z,58.59
2019-03-05T23:06:44.521Z,58.60
2019-03-05T23:09:17.164Z,58.63
2019-03-05T23:11:52.887Z,58.60
2019-03-05T23:14:26.115Z,58.68
2019-03-05T23:16:59.857Z,58.78
2019-03-05T23:19:34.856Z,58.93
2019-03-05T23:22:07.682Z,58.81
2019-03-05T23:24:39.669Z,58.91
2019-03-05T23:27:15.110Z,58.91
2019-03-05T23:29:46.946Z,58.76
2019-03-05T23:32:18.437Z,59.00
2019-03-05T23:34:50.757Z,59.02
2019-03-05T23:37:27.683Z,59.30
2019-03-05T23:39:59.144Z,59.21
2019-03-05T23:42:30.545Z,58.88
2019-03-05T23:45:01.662Z,58.78
2019-03-05T23:47:33.780Z,58.70
2019-03-05T23:50:08.353Z,58.81
2019-03-05T23:52:42.277Z,58.78
2019-03-05T23:55:16.463Z,58.94
2019-03-05T23:57:47.811Z,59.04
